createdAt,value
2022-09-28T00:04:16.966Z,9.94
2022-09-28T00:09:18.727Z,9.92
2022-09-28T00:14:21.123Z,9.94
2022-09-28T00:19:23.018Z,9.92
2022-09-28T00:24:27.638Z,10.04
2022-09-28T00:29:32.050Z,10.02
2022-09-28T00:34:36.291Z,10.08
2022-09-28T00:39:41.212Z,10.16
2022-09-28T00:44:49.111Z,10.19
2022-09-28T00:50:00.037Z,10.25
2022-09-28T00:55:05.637Z,10.30
2022-09-28T01:00:08.461Z,10.38
2022-09-28T01:05:11.480Z,10.38
2022-09-28T01:10:14.275Z,10.38
2022-09-28T01:15:16.074Z,10.29
2022-09-28T01:20:26.733Z,10.17
2022-09-28T01:25:47.814Z,10.16
2022-09-28T01:31:06.604Z,10.18
2022-09-28T01:36:19.299Z,10.28
2022-09-28T01:41:23.975Z,10.22
2022-09-28T01:46:31.799Z,10.23
2022-09-28T01:51:43.723Z,10.19
2022-09-28T01:56:54.463Z,10.22
2022-09-28T02:02:05.510Z,10.26
2022-09-28T02:07:15.483Z,10.23
2022-09-28T02:12:31.109Z,10.27
2022-09-28T02:17:34.032Z,10.32
2022-09-28T02:22:44.096Z,10.36
2022-09-28T02:27:57.578Z,10.36
2022-09-28T02:33:07.368Z,10.35
2022-09-28T02:38:13.828Z,10.30
2022-09-28T02:43:31.040Z,10.34
2022-09-28T02:48:55.757Z,10.31
2022-09-28T02:54:29.528Z,10.27
2022-09-28T02:59:59.083Z,10.25
2022-09-28T03:05:13.296Z,10.19
2022-09-28T03:10:30.889Z,10.20
2022-09-28T03:15:35.343Z,10.15
2022-09-28T03:20:37.378Z,10.22
2022-09-28T03:25:39.230Z,10.22
2022-09-28T03:30:41.646Z,10.20
2022-09-28T03:35:48.027Z,10.23
2022-09-28T03:40:59.815Z,10.32
2022-09-28T03:46:05.219Z,10.39
2022-09-28T03:51:13.349Z,10.44
2022-09-28T03:56:16.022Z,10.45
2022-09-28T04:01:18.184Z,10.43
2022-09-28T04:06:23.446Z,10.45
2022-09-28T04:11:25.013Z,10.45
2022-09-28T04:16:27.719Z,10.44
2022-09-28T04:21:50.554Z,10.44
2022-09-28T04:26:52.578Z,10.49
2022-09-28T04:31:56.251Z,10.53
2022-09-28T04:37:18.228Z,10.54
2022-09-28T04:42:19.914Z,10.59
2022-09-28T04:47:24.170Z,10.62
2022-09-28T04:52:51.959Z,10.65
2022-09-28T04:57:53.877Z,10.68
2022-09-28T05:02:55.961Z,10.70
2022-09-28T05:08:30.125Z,10.71
2022-09-28T05:13:35.694Z,11.09
2022-09-28T05:18:37.539Z,11.48
2022-09-28T05:23:47.382Z,11.67
2022-09-28T05:28:49.250Z,11.81
2022-09-28T05:34:09.300Z,11.90
2022-09-28T05:39:11.298Z,11.90
2022-09-28T05:44:13.457Z,11.92
2022-09-28T05:49:17.329Z,12.04
2022-09-28T05:54:19.147Z,12.03
2022-09-28T05:59:22.321Z,11.72
2022-09-28T06:04:24.697Z,11.55
2022-09-28T06:09:26.441Z,11.46
2022-09-28T06:14:45.708Z,11.31
2022-09-28T06:19:48.619Z,11.24
2022-09-28T06:25:01.137Z,11.21
2022-09-28T06:30:03.540Z,11.23
2022-09-28T06:35:05.984Z,11.22
2022-09-28T06:40:08.173Z,11.18
2022-09-28T06:45:11.094Z,11.14
2022-09-28T06:50:19.314Z,11.10
2022-09-28T06:55:43.759Z,11.11
2022-09-28T07:00:47.239Z,11.08
2022-09-28T07:05:52.571Z,11.07
2022-09-28T07:11:15.166Z,11.07
2022-09-28T07:16:28.578Z,11.13
2022-09-28T07:21:32.062Z,11.15
2022-09-28T07:26:36.490Z,11.24
2022-09-28T07:32:01.826Z,11.29
2022-09-28T07:37:32.757Z,11.30
2022-09-28T07:42:36.178Z,11.27
2022-09-28T07:47:38.237Z,11.18
2022-09-28T07:53:03.914Z,10.90
2022-09-28T07:58:15.539Z,10.72
2022-09-28T08:03:56.305Z,10.51
2022-09-28T08:08:59.885Z,10.43
2022-09-28T08:14:21.577Z,10.38
2022-09-28T08:20:00.517Z,10.38
2022-09-28T08:25:03.658Z,10.44
2022-09-28T08:30:06.119Z,10.49
2022-09-28T08:35:22.698Z,10.45
2022-09-28T08:40:59.747Z,10.44
2022-09-28T08:46:30.318Z,10.44
2022-09-28T08:52:03.181Z,10.48
2022-09-28T08:57:32.080Z,10.42
2022-09-28T09:02:39.652Z,10.40
2022-09-28T09:08:00.827Z,10.50
2022-09-28T09:13:20.959Z,10.68
2022-09-28T09:18:32.730Z,10.77
2022-09-28T09:23:55.420Z,10.88
2022-09-28T09:29:13.748Z,11.08
2022-09-28T09:34:35.869Z,11.10
2022-09-28T09:40:28.622Z,11.13
2022-09-28T09:46:04.157Z,11.19
2022-09-28T09:51:23.666Z,11.16
2022-09-28T09:56:41.181Z,11.30
2022-09-28T10:01:52.002Z,11.44
2022-09-28T10:07:34.764Z,11.32
2022-09-28T10:12:37.119Z,11.30
2022-09-28T10:17:39.426Z,11.34
2022-09-28T10:23:03.171Z,11.31
2022-09-28T10:28:07.503Z,11.36
2022-09-28T10:33:29.364Z,11.35
2022-09-28T10:38:33.614Z,11.35
2022-09-28T10:44:06.676Z,11.42
2022-09-28T10:49:18.567Z,11.50
2022-09-28T10:54:28.680Z,11.48
2022-09-28T10:59:42.212Z,11.45
2022-09-28T11:05:22.754Z,11.47
2022-09-28T11:10:30.979Z,11.51
2022-09-28T11:15:43.099Z,11.57
2022-09-28T11:20:48.774Z,11.66
2022-09-28T11:26:06.762Z,11.58
2022-09-28T11:31:10.292Z,11.55
2022-09-28T11:37:02.577Z,11.62
2022-09-28T11:42:20.544Z,11.64
2022-09-28T11:48:01.289Z,11.90
2022-09-28T11:53:04.178Z,12.10
2022-09-28T11:58:09.884Z,12.23
2022-09-28T12:03:18.128Z,12.31
2022-09-28T12:08:27.397Z,12.38
2022-09-28T12:13:37.219Z,12.39
2022-09-28T12:18:49.363Z,12.31
2022-09-28T12:24:22.070Z,12.41
2022-09-28T12:29:32.175Z,12.31
2022-09-28T12:34:33.874Z,12.37
2022-09-28T12:40:02.963Z,12.43
2022-09-28T12:45:27.661Z,12.52
2022-09-28T12:50:42.714Z,12.56
2022-09-28T12:56:20.918Z,12.64
2022-09-28T13:01:41.263Z,12.67
2022-09-28T13:06:51.454Z,12.75
2022-09-28T13:12:22.393Z,12.75
2022-09-28T13:17:56.026Z,12.77
2022-09-28T13:23:41.657Z,12.82
2022-09-28T13:28:46.975Z,12.93
2022-09-28T13:33:50.383Z,12.97
2022-09-28T13:38:53.696Z,13.00
2022-09-28T13:44:13.867Z,13.02
2022-09-28T13:49:24.622Z,13.06
2022-09-28T13:54:44.935Z,13.01
2022-09-28T13:59:53.898Z,13.01
2022-09-28T14:05:05.474Z,13.11
2022-09-28T14:10:20.930Z,13.15
2022-09-28T14:15:28.871Z,13.08
2022-09-28T14:20:31.426Z,13.11
2022-09-28T14:25:40.952Z,13.10
2022-09-28T14:30:43.204Z,12.98
2022-09-28T14:35:50.306Z,12.88
2022-09-28T14:41:12.477Z,12.64
2022-09-28T14:46:14.235Z,12.69
2022-09-28T14:51:26.167Z,12.67
2022-09-28T14:56:32.803Z,12.64
2022-09-28T15:01:36.248Z,12.59
2022-09-28T15:06:50.617Z,12.64
2022-09-28T15:11:57.482Z,12.48
2022-09-28T15:17:02.841Z,12.53
2022-09-28T15:22:15.402Z,12.54
2022-09-28T15:27:18.967Z,12.59
2022-09-28T15:32:25.762Z,12.47
2022-09-28T15:37:33.158Z,12.31
2022-09-28T15:42:36.723Z,12.30
2022-09-28T15:47:40.073Z,12.34
2022-09-28T15:52:47.196Z,12.25
2022-09-28T15:57:49.201Z,12.19
2022-09-28T16:03:06.840Z,12.20
2022-09-28T16:08:24.581Z,12.15
2022-09-28T16:13:26.613Z,12.15
2022-09-28T16:18:30.686Z,12.12
2022-09-28T16:23:34.235Z,12.11
2022-09-28T16:28:38.617Z,12.02
2022-09-28T16:33:54.039Z,12.05
2022-09-28T16:38:56.267Z,11.99
2022-09-28T16:44:02.088Z,12.00
2022-09-28T16:49:06.170Z,11.98
2022-09-28T16:54:37.553Z,11.81
2022-09-28T16:59:39.414Z,11.77
2022-09-28T17:04:43.654Z,11.77
2022-09-28T17:09:48.883Z,11.73
2022-09-28T17:14:50.564Z,11.66
2022-09-28T17:19:52.201Z,11.62
2022-09-28T17:24:53.870Z,11.57
2022-09-28T17:29:55.597Z,11.55
2022-09-28T17:35:22.598Z,11.54
2022-09-28T17:40:28.278Z,11.51
2022-09-28T17:45:31.288Z,11.48
2022-09-28T17:50:34.910Z,11.48
2022-09-28T17:55:38.884Z,11.40
2022-09-28T18:00:40.844Z,11.19
2022-09-28T18:05:44.084Z,11.20
2022-09-28T18:10:48.900Z,11.17
2022-09-28T18:15:54.901Z,11.19
2022-09-28T18:20:56.632Z,11.28
2022-09-28T18:25:59.462Z,11.29
2022-09-28T18:31:06.392Z,11.19
2022-09-28T18:36:08.544Z,11.17
2022-09-28T18:41:15.778Z,11.16
2022-09-28T18:46:18.737Z,11.17
2022-09-28T18:51:20.807Z,11.09
2022-09-28T18:56:22.679Z,10.96
2022-09-28T19:01:32.092Z,10.89
2022-09-28T19:06:36.818Z,10.88
2022-09-28T19:11:38.673Z,10.82
2022-09-28T19:16:40.907Z,10.75
2022-09-28T19:21:43.379Z,10.73
2022-09-28T19:26:46.506Z,10.65
2022-09-28T19:31:49.590Z,10.52
2022-09-28T19:36:51.317Z,10.53
2022-09-28T19:41:53.087Z,10.60
2022-09-28T19:46:59.735Z,10.61
2022-09-28T19:52:12.877Z,10.59
2022-09-28T19:57:16.369Z,10.56
2022-09-28T20:02:18.098Z,10.58
2022-09-28T20:07:20.626Z,10.61
2022-09-28T20:12:22.435Z,10.54
2022-09-28T20:17:24.146Z,10.53
2022-09-28T20:22:25.878Z,10.34
2022-09-28T20:27:27.858Z,10.30
2022-09-28T20:32:33.463Z,10.31
2022-09-28T20:37:35.234Z,10.37
2022-09-28T20:42:42.051Z,10.44
2022-09-28T20:47:43.774Z,10.47
2022-09-28T20:52:45.542Z,10.49
2022-09-28T20:57:47.389Z,10.43
2022-09-28T21:02:52.916Z,10.45
2022-09-28T21:07:54.927Z,10.43
2022-09-28T21:12:56.655Z,10.44
2022-09-28T21:17:58.368Z,10.41
2022-09-28T21:23:00.338Z,10.42
2022-09-28T21:28:02.030Z,10.40
2022-09-28T21:33:03.963Z,10.41
2022-09-28T21:38:05.650Z,10.38
2022-09-28T21:43:07.465Z,10.33
2022-09-28T21:48:09.311Z,10.20
2022-09-28T21:53:11.293Z,9.99
2022-09-28T21:58:12.963Z,9.74
2022-09-28T22:03:15.803Z,9.56
2022-09-28T22:08:18.303Z,9.45
2022-09-28T22:13:20.007Z,9.43
2022-09-28T22:18:21.767Z,9.60
2022-09-28T22:23:23.486Z,9.72
2022-09-28T22:28:25.323Z,9.72
2022-09-28T22:33:27.455Z,9.74
2022-09-28T22:38:31.793Z,9.58
2022-09-28T22:43:34.034Z,9.34
2022-09-28T22:48:36.164Z,9.17
2022-09-28T22:53:38.263Z,8.97
2022-09-28T22:58:40.029Z,8.88
2022-09-28T23:03:42.545Z,8.80
2022-09-28T23:08:45.536Z,8.80
2022-09-28T23:13:50.629Z,8.89
2022-09-28T23:18:55.870Z,8.98
2022-09-28T23:24:00.951Z,9.12
2022-09-28T23:29:03.502Z,9.10
2022-09-28T23:34:06.697Z,9.19
2022-09-28T23:39:10.125Z,9.26
2022-09-28T23:44:11.839Z,9.29
2022-09-28T23:49:13.541Z,9.32
2022-09-28T23:54:15.931Z,9.27
2022-09-28T23:59:17.773Z,9.12
